Time;durP1;ratioP1;P1;durP2;ratioP2;P2;SDS_P1;SDS_P2;PMS_P1;PMS_P2;Temp;Humidity;BMP_temperature;BMP_pressure;BME280_temperature;BME280_humidity;BME280_pressure;Samples;Min_cycle;Max_cycle;Signal;HPM_P1;HPM_P2
2021/11/27 00:01:51;;;;;;;2.10;1.92;;;-15.70;99.90;;;;;;5094891;28;20119;-67
2021/11/27 00:04:16;;;;;;;4.60;1.90;;;-15.70;99.90;;;;;;5094842;28;20103;-67
2021/11/27 00:06:42;;;;;;;2.88;2.22;;;-15.80;99.90;;;;;;5094998;28;20016;-67
2021/11/27 00:09:09;;;;;;;1.80;1.70;;;-15.80;99.90;;;;;;5093596;28;20024;-67
2021/11/27 00:11:35;;;;;;;3.53;2.08;;;-15.90;99.90;;;;;;5094828;28;20114;-67
2021/11/27 00:14:02;;;;;;;2.42;1.90;;;-15.90;99.90;;;;;;5094674;28;20103;-67
2021/11/27 00:16:29;;;;;;;2.50;1.83;;;-15.90;99.90;;;;;;5094537;28;20036;-67
2021/11/27 00:18:55;;;;;;;2.53;1.85;;;-15.90;99.90;;;;;;5094653;28;20562;-67
2021/11/27 00:21:21;;;;;;;2.63;1.90;;;-15.90;99.90;;;;;;5094769;28;20050;-68
2021/11/27 00:23:48;;;;;;;2.75;2.08;;;-15.80;99.90;;;;;;5094750;28;20511;-66
2021/11/27 00:26:15;;;;;;;2.90;2.05;;;-15.90;99.90;;;;;;5093259;28;20020;-65
2021/11/27 00:28:42;;;;;;;2.70;2.15;;;-15.90;99.90;;;;;;5094228;28;20028;-65
2021/11/27 00:31:12;;;;;;;4.78;1.77;;;-15.90;99.90;;;;;;5094377;28;20550;-65
2021/11/27 00:33:38;;;;;;;;;;;-15.90;99.90;;;;;;5094830;28;20044;-64
2021/11/27 00:36:04;;;;;;;1.70;1.60;;;-16.00;99.90;;;;;;5094621;28;20339;-65
2021/11/27 00:38:30;;;;;;;3.10;1.95;;;-16.10;99.90;;;;;;5094032;28;20526;-65
2021/11/27 00:40:56;;;;;;;2.47;1.85;;;-16.20;99.90;;;;;;5094256;28;20035;-64
2021/11/27 00:43:22;;;;;;;1.70;1.60;;;-16.20;99.90;;;;;;5094139;28;20061;-64
2021/11/27 00:45:49;;;;;;;2.22;1.77;;;-16.30;99.90;;;;;;5094282;28;20028;-66
2021/11/27 00:48:16;;;;;;;6.00;2.17;;;-16.20;99.90;;;;;;5094290;28;20111;-65
2021/11/27 00:50:49;;;;;;;2.20;2.00;;;-16.20;99.90;;;;;;5093832;28;20487;-65
2021/11/27 00:53:15;;;;;;;2.75;2.10;;;-16.20;99.90;;;;;;5093960;28;20034;-64
2021/11/27 00:55:41;;;;;;;1.52;1.42;;;-16.20;99.90;;;;;;5093740;28;20059;-64
2021/11/27 00:58:07;;;;;;;1.77;1.67;;;-16.20;99.90;;;;;;5093786;28;20097;-65
2021/11/27 01:00:41;;;;;;;2.63;1.90;;;-16.30;99.90;;;;;;5093789;28;20040;-65
2021/11/27 01:03:10;;;;;;;1.70;1.60;;;-16.30;99.90;;;;;;5094122;28;20043;-65
2021/11/27 01:05:37;;;;;;;1.75;1.65;;;-16.40;99.90;;;;;;5093634;28;20020;-65
2021/11/27 01:08:04;;;;;;;4.07;1.85;;;-16.40;99.90;;;;;;5094067;28;20051;-65
2021/11/27 01:10:35;;;;;;;1.80;1.70;;;-16.40;99.90;;;;;;5093477;28;20410;-65
2021/11/27 01:13:00;;;;;;;1.50;1.40;;;-16.40;99.90;;;;;;5093998;28;20032;-65
2021/11/27 01:15:30;;;;;;;2.22;1.88;;;-16.40;99.90;;;;;;5093710;28;20022;-65
2021/11/27 01:17:57;;;;;;;2.22;2.00;;;-16.50;99.90;;;;;;5093825;28;20032;-65
2021/11/27 01:20:31;;;;;;;2.38;1.90;;;-16.50;99.90;;;;;;5093330;28;20047;-65
2021/11/27 01:22:57;;;;;;;2.25;2.05;;;-16.40;99.90;;;;;;5093660;28;20036;-65
2021/11/27 01:25:24;;;;;;;1.75;1.60;;;-16.30;99.90;;;;;;5093260;28;20028;-65
2021/11/27 01:27:50;;;;;;;3.50;2.20;;;-16.40;99.90;;;;;;5093574;28;20024;-65
2021/11/27 01:30:17;;;;;;;1.88;1.77;;;-16.40;99.90;;;;;;5093069;28;20115;-65
2021/11/27 01:32:42;;;;;;;2.53;1.95;;;-16.30;99.90;;;;;;5093398;28;20020;-65
2021/11/27 01:35:09;;;;;;;1.63;1.52;;;-16.30;99.90;;;;;;5093152;28;20476;-65
2021/11/27 01:37:34;;;;;;;2.03;1.90;;;-16.30;99.90;;;;;;5093336;28;20028;-65
2021/11/27 01:40:03;;;;;;;2.25;1.83;;;-16.40;99.90;;;;;;5092906;28;20024;-65
2021/11/27 01:42:29;;;;;;;2.15;1.95;;;-16.50;99.90;;;;;;5092902;28;20022;-66
2021/11/27 01:44:55;;;;;;;1.73;1.63;;;-16.50;99.90;;;;;;5093202;28;20028;-66
2021/11/27 01:47:21;;;;;;;1.92;1.80;;;-16.50;99.90;;;;;;5092835;28;20020;-65
2021/11/27 01:49:46;;;;;;;2.15;1.95;;;-16.40;99.90;;;;;;5092850;28;20024;-65
2021/11/27 01:52:12;;;;;;;1.73;1.63;;;-16.50;99.80;;;;;;5093058;28;20533;-64
2021/11/27 01:54:39;;;;;;;2.88;1.98;;;-16.50;99.90;;;;;;5092507;28;20467;-64
2021/11/27 01:57:06;;;;;;;2.03;1.90;;;-16.60;99.90;;;;;;5092563;28;20504;-64
2021/11/27 01:59:39;;;;;;;2.10;1.90;;;-16.60;99.90;;;;;;5092760;28;20032;-64
2021/11/27 02:02:08;;;;;;;1.77;1.67;;;-16.60;99.90;;;;;;5092672;28;20035;-64
2021/11/27 02:04:34;;;;;;;1.70;1.60;;;-16.50;99.90;;;;;;5092723;28;20024;-64
2021/11/27 02:07:01;;;;;;;2.22;2.03;;;-16.60;99.90;;;;;;5092565;28;20033;-64
2021/11/27 02:09:33;;;;;;;1.60;1.50;;;-16.70;99.90;;;;;;5092312;28;20024;-64
2021/11/27 02:12:01;;;;;;;1.67;1.58;;;-16.60;99.90;;;;;;5092448;28;20043;-64
2021/11/27 02:14:27;;;;;;;1.80;1.70;;;-16.60;99.70;;;;;;5091814;28;20020;-65
2021/11/27 02:16:53;;;;;;;3.08;1.65;;;-16.70;99.70;;;;;;5092501;28;20024;-64
2021/11/27 02:19:19;;;;;;;2.38;1.80;;;-16.70;99.80;;;;;;5092326;28;20118;-64
2021/11/27 02:21:47;;;;;;;2.30;2.10;;;-16.70;99.90;;;;;;5092481;28;20027;-64
2021/11/27 02:24:15;;;;;;;3.10;2.15;;;-16.70;99.90;;;;;;5092170;28;20050;-64
2021/11/27 02:55:45;;;;;;;3.83;1.80;;;-16.90;99.10;;;;;;5091934;28;20039;-64
2021/11/27 02:58:11;;;;;;;1.90;1.80;;;-16.80;98.90;;;;;;5091846;28;20503;-64
2021/11/27 03:00:37;;;;;;;2.45;1.83;;;-16.90;98.80;;;;;;5092168;28;20016;-64
2021/11/27 03:03:03;;;;;;;1.90;1.80;;;-16.80;98.90;;;;;;5091836;28;20020;-64
2021/11/27 03:05:29;;;;;;;1.90;1.80;;;-16.80;99.00;;;;;;5091882;28;20032;-64
2021/11/27 03:07:55;;;;;;;2.25;1.95;;;-16.80;99.10;;;;;;5091762;28;20024;-64
2021/11/27 03:10:21;;;;;;;2.78;2.20;;;-16.80;98.80;;;;;;5091840;28;20024;-64
2021/11/27 03:12:48;;;;;;;1.70;1.60;;;-16.80;98.50;;;;;;5091748;28;20024;-64
2021/11/27 03:15:18;;;;;;;2.15;1.85;;;-16.90;98.10;;;;;;5092107;28;20101;-64
2021/11/27 03:17:45;;;;;;;1.70;1.60;;;-16.90;98.30;;;;;;5092124;28;20021;-64
2021/11/27 03:20:14;;;;;;;1.60;1.50;;;-16.90;97.80;;;;;;5092040;28;20035;-64
2021/11/27 03:22:40;;;;;;;2.35;2.15;;;-17.00;97.60;;;;;;5091836;28;20466;-64
2021/11/27 03:25:07;;;;;;;3.97;2.20;;;-17.00;98.00;;;;;;5092759;28;20130;-64
2021/11/27 03:27:33;;;;;;;1.80;1.70;;;-17.00;98.70;;;;;;5095738;28;20055;-64
2021/11/27 03:29:59;;;;;;;1.95;1.85;;;-17.00;98.30;;;;;;5094162;28;20048;-65
2021/11/27 03:32:25;;;;;;;1.77;1.67;;;-17.00;98.10;;;;;;5095829;28;20028;-64
2021/11/27 03:34:51;;;;;;;2.05;1.88;;;-17.10;98.40;;;;;;5095640;28;20387;-65
2021/11/27 03:37:18;;;;;;;2.10;2.00;;;-17.10;98.60;;;;;;5095770;28;20081;-64
2021/11/27 03:39:45;;;;;;;1.80;1.70;;;-17.10;98.90;;;;;;5095659;28;20024;-64
2021/11/27 03:42:12;;;;;;;1.90;1.80;;;-17.10;99.30;;;;;;5095480;28;20069;-64
2021/11/27 03:44:39;;;;;;;1.80;1.70;;;-17.00;99.50;;;;;;5095582;28;20035;-65
2021/11/27 03:47:05;;;;;;;1.80;1.70;;;-17.10;99.20;;;;;;5094180;28;20028;-64
2021/11/27 03:49:31;;;;;;;2.13;1.80;;;-17.10;99.30;;;;;;5095107;28;20498;-64
2021/11/27 03:51:58;;;;;;;2.38;1.90;;;-17.10;99.50;;;;;;5095324;28;20051;-64
2021/11/27 03:54:24;;;;;;;2.58;2.17;;;-17.10;99.70;;;;;;5095018;28;20012;-64
2021/11/27 03:56:51;;;;;;;3.17;1.95;;;-17.10;99.90;;;;;;5095047;28;20055;-64
2021/11/27 03:59:18;;;;;;;2.25;1.70;;;-17.00;99.80;;;;;;5095047;28;20031;-64
2021/11/27 04:01:43;;;;;;;2.22;2.00;;;-17.10;99.80;;;;;;5095144;28;20091;-65
2021/11/27 04:04:10;;;;;;;1.88;1.70;;;-17.10;99.80;;;;;;5094885;28;20225;-65
2021/11/27 04:06:36;;;;;;;1.70;1.60;;;-17.10;99.60;;;;;;5095149;28;20055;-65
2021/11/27 04:09:06;;;;;;;1.52;1.50;;;-17.30;99.90;;;;;;5094914;28;20024;-65
2021/11/27 04:11:33;;;;;;;1.88;1.77;;;-17.30;99.90;;;;;;5094862;28;20032;-65
2021/11/27 04:13:59;;;;;;;2.22;2.08;;;-17.30;99.90;;;;;;5094693;28;20024;-65
2021/11/27 04:16:24;;;;;;;1.92;1.63;;;-17.30;99.90;;;;;;5094733;28;20098;-65
2021/11/27 04:18:50;;;;;;;1.75;1.65;;;-17.30;99.90;;;;;;5094783;28;20361;-65
2021/11/27 04:21:18;;;;;;;2.10;1.92;;;-17.30;99.90;;;;;;5094650;28;20099;-65
2021/11/27 04:23:44;;;;;;;2.03;1.75;;;-17.20;99.90;;;;;;5094542;28;20418;-66
2021/11/27 04:26:10;;;;;;;3.17;2.00;;;-17.10;99.90;;;;;;5094371;28;20031;-65
2021/11/27 04:28:36;;;;;;;2.03;1.88;;;-17.10;99.90;;;;;;5094767;28;20032;-66
2021/11/27 04:31:02;;;;;;;2.05;1.85;;;-17.10;99.90;;;;;;5094221;28;20437;-65
2021/11/27 04:33:28;;;;;;;1.70;1.60;;;-17.00;99.90;;;;;;5094649;28;20016;-65
2021/11/27 04:35:54;;;;;;;3.45;2.13;;;-17.00;99.90;;;;;;5093783;28;20020;-65
2021/11/27 04:38:21;;;;;;;2.05;1.95;;;-17.10;99.90;;;;;;5094494;28;20023;-65
2021/11/27 04:40:46;;;;;;;2.22;1.95;;;-17.20;99.90;;;;;;5094473;28;20096;-66
2021/11/27 04:43:12;;;;;;;3.67;2.25;;;-17.10;99.90;;;;;;5094112;28;20074;-64
2021/11/27 04:45:38;;;;;;;4.97;1.98;;;-17.10;99.90;;;;;;5094301;28;20039;-65
2021/11/27 04:48:04;;;;;;;1.75;1.65;;;-17.10;99.90;;;;;;5094080;28;20016;-65
2021/11/27 04:50:31;;;;;;;1.98;1.80;;;-17.00;99.90;;;;;;5094223;28;20028;-65
2021/11/27 04:52:57;;;;;;;1.83;1.73;;;-16.90;99.90;;;;;;5093967;28;20030;-65
2021/11/27 04:55:24;;;;;;;3.42;2.10;;;-16.80;99.90;;;;;;5093905;28;20016;-65
2021/11/27 04:57:50;;;;;;;1.75;1.65;;;-16.80;99.90;;;;;;5093757;28;20060;-65
2021/11/27 05:00:26;;;;;;;2.55;2.30;;;-16.80;99.90;;;;;;5093733;28;20031;-65
2021/11/27 05:02:53;;;;;;;2.08;1.90;;;-16.80;99.90;;;;;;5093975;28;20751;-65
2021/11/27 05:05:19;;;;;;;1.80;1.67;;;-16.90;99.90;;;;;;5094016;28;20063;-65
2021/11/27 05:07:46;;;;;;;1.83;1.73;;;-16.90;99.90;;;;;;5094051;28;20104;-64
2021/11/27 05:10:12;;;;;;;2.13;1.95;;;-17.00;99.90;;;;;;5093444;28;20039;-64
2021/11/27 05:12:39;;;;;;;7.03;2.00;;;-17.00;99.90;;;;;;5093549;28;20034;-64
2021/11/27 05:15:05;;;;;;;1.92;1.77;;;-17.00;99.90;;;;;;5093674;28;20031;-65
2021/11/27 05:17:31;;;;;;;1.73;1.63;;;-17.00;99.90;;;;;;5093560;28;20047;-64
2021/11/27 05:19:57;;;;;;;1.65;1.55;;;-16.90;99.90;;;;;;5093210;28;20441;-65
2021/11/27 05:22:23;;;;;;;1.77;1.67;;;-16.90;99.90;;;;;;5093569;28;20032;-65
2021/11/27 05:24:49;;;;;;;2.90;2.13;;;-17.00;99.90;;;;;;5093383;28;20028;-64
2021/11/27 05:27:17;;;;;;;2.33;2.20;;;-17.00;99.90;;;;;;5093627;28;20024;-64
2021/11/27 05:29:43;;;;;;;1.88;1.77;;;-16.90;99.90;;;;;;5093334;28;20020;-63
2021/11/27 05:32:20;;;;;;;1.75;1.65;;;-16.90;99.90;;;;;;5093164;28;20028;-63
2021/11/27 05:34:47;;;;;;;1.90;1.70;;;-16.90;99.90;;;;;;5106865;28;20379;-63
2021/11/27 05:37:13;;;;;;;3.55;1.80;;;-16.90;99.90;;;;;;5113729;28;20032;-62
2021/11/27 05:39:42;;;;;;;1.90;1.80;;;-16.90;99.90;;;;;;5113539;28;20471;-63
2021/11/27 05:42:08;;;;;;;1.65;1.63;;;-16.90;99.90;;;;;;5113081;28;20071;-63
2021/11/27 05:44:34;;;;;;;1.50;1.50;;;-16.90;99.90;;;;;;5113333;28;20030;-64
2021/11/27 05:47:00;;;;;;;1.83;1.70;;;-16.40;99.90;;;;;;5112746;28;20028;-63
2021/11/27 05:49:26;;;;;;;1.90;1.80;;;-15.70;99.90;;;;;;5112887;28;20027;-64
2021/11/27 05:51:51;;;;;;;1.77;1.63;;;-15.90;99.90;;;;;;5110260;28;20118;-63
2021/11/27 05:54:17;;;;;;;1.65;1.55;;;-16.30;99.90;;;;;;5107663;28;20479;-63
2021/11/27 05:56:43;;;;;;;3.20;1.85;;;-16.50;99.90;;;;;;5101200;28;20046;-61
2021/11/27 05:59:08;;;;;;;2.30;1.88;;;-16.60;99.90;;;;;;5103750;28;20020;-61
2021/11/27 06:01:34;;;;;;;3.17;1.92;;;-16.50;99.90;;;;;;5100918;28;20050;-62
2021/11/27 06:04:00;;;;;;;2.97;1.90;;;-16.50;99.90;;;;;;5107180;28;20023;-62
2021/11/27 06:06:26;;;;;;;2.33;2.10;;;-16.40;99.90;;;;;;5109279;28;20031;-61
2021/11/27 06:08:52;;;;;;;1.92;1.83;;;-16.40;99.90;;;;;;5100483;28;20075;-62
2021/11/27 06:11:17;;;;;;;2.15;1.95;;;-16.40;99.90;;;;;;5100605;28;20023;-61
2021/11/27 06:13:43;;;;;;;5.80;1.92;;;-16.40;99.90;;;;;;5103105;28;20468;-61
2021/11/27 06:16:11;;;;;;;4.40;1.88;;;-16.30;99.90;;;;;;5100207;28;20020;-62
2021/11/27 06:18:37;;;;;;;2.10;1.90;;;-16.20;99.90;;;;;;5100390;28;20024;-63
2021/11/27 06:21:05;;;;;;;2.33;1.92;;;-16.10;99.90;;;;;;5101277;28;20028;-62
2021/11/27 06:23:31;;;;;;;2.20;2.10;;;-16.10;99.90;;;;;;5101492;28;20024;-61
2021/11/27 06:25:57;;;;;;;1.73;1.63;;;-16.10;99.90;;;;;;5103474;28;20023;-61
2021/11/27 06:28:23;;;;;;;1.83;1.50;;;-16.10;99.90;;;;;;5102724;28;20380;-61
2021/11/27 06:30:49;;;;;;;1.80;1.70;;;-16.20;99.90;;;;;;5111141;28;20020;-61
2021/11/27 06:33:15;;;;;;;2.05;1.88;;;-16.20;99.90;;;;;;5112703;28;20036;-62
2021/11/27 06:35:41;;;;;;;2.35;2.25;;;-15.80;99.90;;;;;;5112508;28;20479;-62
2021/11/27 06:38:08;;;;;;;2.92;2.20;;;-15.80;99.90;;;;;;5112680;28;20030;-62
2021/11/27 06:40:33;;;;;;;1.65;1.63;;;-15.80;99.90;;;;;;5112391;28;20477;-62
2021/11/27 06:43:02;;;;;;;1.90;1.75;;;-15.80;99.90;;;;;;5112695;28;20111;-62
2021/11/27 06:45:29;;;;;;;2.13;1.92;;;-15.40;99.90;;;;;;5112671;28;20020;-64
2021/11/27 06:47:55;;;;;;;2.22;2.03;;;-15.30;99.90;;;;;;5112827;28;20110;-62
2021/11/27 06:50:21;;;;;;;2.70;2.20;;;-15.40;99.90;;;;;;5103352;28;20013;-62
2021/11/27 06:52:48;;;;;;;2.40;2.20;;;-15.50;99.90;;;;;;5102085;28;20024;-62
2021/11/27 06:55:14;;;;;;;2.13;1.90;;;-15.50;99.90;;;;;;5102480;28;20020;-62
2021/11/27 06:57:39;;;;;;;1.75;1.65;;;-15.60;99.90;;;;;;5100595;28;20496;-63
2021/11/27 07:00:06;;;;;;;2.15;1.63;;;-15.60;99.90;;;;;;5104525;28;20020;-62
2021/11/27 07:02:32;;;;;;;3.08;2.15;;;-15.60;99.90;;;;;;5111938;28;20035;-62
2021/11/27 07:04:58;;;;;;;2.05;1.88;;;-15.60;99.90;;;;;;5116681;28;20020;-62
2021/11/27 07:07:24;;;;;;;2.42;1.80;;;-15.60;99.90;;;;;;5116556;28;20019;-62
2021/11/27 07:09:50;;;;;;;1.30;1.30;;;-15.70;99.90;;;;;;5116355;28;20089;-62
2021/11/27 07:12:16;;;;;;;2.30;1.92;;;-15.70;99.90;;;;;;5116262;28;20017;-64
2021/11/27 07:14:42;;;;;;;1.95;1.85;;;-15.80;99.90;;;;;;5116242;28;20454;-63
2021/11/27 07:17:08;;;;;;;1.75;1.65;;;-15.60;99.90;;;;;;5116174;28;20484;-62
2021/11/27 07:19:33;;;;;;;2.22;1.92;;;-15.50;99.90;;;;;;5114834;28;20027;-63
2021/11/27 07:22:01;;;;;;;1.98;1.88;;;-15.50;99.90;;;;;;5112313;27;20032;-63
2021/11/27 07:24:27;;;;;;;2.05;1.85;;;-15.50;99.90;;;;;;5115609;28;20073;-63
2021/11/27 07:26:53;;;;;;;1.70;1.60;;;-15.50;99.90;;;;;;5115801;28;20024;-62
2021/11/27 07:29:19;;;;;;;1.85;1.65;;;-15.50;99.90;;;;;;5115708;28;20483;-63
2021/11/27 07:31:45;;;;;;;2.05;1.70;;;-15.60;99.90;;;;;;5115910;28;20055;-63
2021/11/27 07:34:11;;;;;;;1.92;1.73;;;-15.60;99.90;;;;;;5115711;28;20416;-63
2021/11/27 07:36:37;;;;;;;3.53;2.90;;;-15.60;99.90;;;;;;5115931;28;20428;-63
2021/11/27 07:39:08;;;;;;;3.65;3.22;;;-15.50;99.90;;;;;;5123781;27;20016;-63
2021/11/27 07:41:34;;;;;;;3.53;3.05;;;-15.40;99.90;;;;;;5109817;27;20487;-63
2021/11/27 07:44:00;;;;;;;2.45;2.25;;;-15.40;99.90;;;;;;5132114;27;20062;-62
2021/11/27 07:46:27;;;;;;;2.05;1.85;;;-15.30;99.90;;;;;;5127369;27;20027;-62
2021/11/27 07:48:53;;;;;;;1.83;1.73;;;-15.30;99.90;;;;;;5118608;27;20368;-62
2021/11/27 07:51:18;;;;;;;2.53;2.10;;;-15.20;99.90;;;;;;5129124;27;20016;-62
2021/11/27 07:53:44;;;;;;;2.72;2.28;;;-15.20;99.90;;;;;;5124425;27;20027;-62
2021/11/27 07:56:11;;;;;;;2.58;2.20;;;-15.10;99.90;;;;;;5133261;27;20042;-63
2021/11/27 07:58:37;;;;;;;2.10;1.90;;;-15.00;99.90;;;;;;5118343;27;20032;-63
2021/11/27 08:01:03;;;;;;;2.42;2.10;;;-15.00;99.90;;;;;;5131052;27;20030;-63
2021/11/27 08:03:28;;;;;;;3.50;1.90;;;-15.00;99.90;;;;;;5117504;27;20386;-63
2021/11/27 08:05:54;;;;;;;2.15;1.92;;;-15.00;99.90;;;;;;5124155;27;20027;-63
2021/11/27 08:08:20;;;;;;;6.57;2.03;;;-15.00;99.90;;;;;;5129288;27;20110;-63
2021/11/27 08:10:46;;;;;;;2.53;2.10;;;-15.00;99.90;;;;;;5117141;27;20038;-63
2021/11/27 08:13:12;;;;;;;4.68;2.10;;;-15.00;99.90;;;;;;5130229;27;20019;-64
2021/11/27 08:15:37;;;;;;;4.53;2.67;;;-14.90;99.90;;;;;;5123536;27;20072;-62
2021/11/27 08:18:03;;;;;;;3.70;2.10;;;-14.90;99.90;;;;;;5122719;27;20078;-61
2021/11/27 08:20:29;;;;;;;3.10;2.72;;;-14.90;99.90;;;;;;5130358;27;20039;-62
2021/11/27 08:22:55;;;;;;;2.67;2.20;;;-14.80;99.90;;;;;;5117928;27;20360;-62
2021/11/27 08:25:20;;;;;;;2.78;2.42;;;-14.80;99.90;;;;;;5128960;27;20024;-62
2021/11/27 08:27:46;;;;;;;3.33;2.25;;;-14.70;99.90;;;;;;5123025;27;20041;-62
2021/11/27 08:30:12;;;;;;;2.25;2.05;;;-14.70;99.90;;;;;;5121141;27;20374;-62
2021/11/27 08:32:39;;;;;;;1.63;1.52;;;-14.70;99.90;;;;;;5131460;27;20378;-62
2021/11/27 08:35:06;;;;;;;5.55;2.42;;;-14.70;99.90;;;;;;5101345;27;20027;-61
2021/11/27 08:37:32;;;;;;;2.80;2.47;;;-14.60;99.90;;;;;;5127103;27;20387;-61
2021/11/27 08:39:59;;;;;;;3.80;2.55;;;-14.60;99.90;;;;;;5125300;27;20021;-61
2021/11/27 08:42:25;;;;;;;4.63;2.90;;;-14.50;99.90;;;;;;5118999;27;20035;-62
2021/11/27 08:44:52;;;;;;;3.92;2.78;;;-14.50;99.90;;;;;;5116015;27;20050;-62
2021/11/27 08:47:19;;;;;;;4.60;2.95;;;-14.40;99.90;;;;;;5131654;27;20435;-63
2021/11/27 08:49:48;;;;;;;5.05;2.65;;;-14.30;99.90;;;;;;5134394;27;20056;-62
2021/11/27 08:52:14;;;;;;;6.68;2.75;;;-14.30;99.90;;;;;;5134178;27;20019;-62
2021/11/27 08:54:40;;;;;;;3.15;2.25;;;-14.30;99.90;;;;;;5114959;27;20106;-62
2021/11/27 08:57:06;;;;;;;4.28;2.38;;;-14.20;99.90;;;;;;5129468;27;20101;-62
2021/11/27 08:59:32;;;;;;;3.22;2.15;;;-14.20;99.90;;;;;;5121506;27;20019;-63
2021/11/27 09:01:58;;;;;;;2.80;2.15;;;-14.20;99.90;;;;;;5130684;27;20035;-63
2021/11/27 09:04:24;;;;;;;3.33;2.33;;;-14.20;99.90;;;;;;5116763;27;20013;-61
2021/11/27 09:06:50;;;;;;;3.13;1.83;;;-14.10;99.90;;;;;;5112722;27;20594;-62
2021/11/27 09:09:17;;;;;;;2.83;1.98;;;-14.20;99.90;;;;;;5110116;28;20027;-61
2021/11/27 09:11:43;;;;;;;4.50;2.75;;;-14.10;99.90;;;;;;5104314;27;20483;-61
2021/11/27 09:14:09;;;;;;;3.35;2.22;;;-14.10;99.90;;;;;;5119463;27;20069;-61
2021/11/27 09:16:35;;;;;;;5.93;2.63;;;-14.00;99.90;;;;;;5124923;27;20023;-61
2021/11/27 09:19:04;;;;;;;2.80;1.88;;;-14.00;99.90;;;;;;5108072;27;20110;-61
2021/11/27 09:21:30;;;;;;;3.40;2.33;;;-13.90;99.90;;;;;;5125781;27;20100;-61
2021/11/27 09:23:56;;;;;;;3.88;2.65;;;-13.90;99.90;;;;;;5102270;28;20111;-61
2021/11/27 09:26:22;;;;;;;3.28;2.85;;;-13.90;99.90;;;;;;5101850;27;20427;-61
2021/11/27 09:28:48;;;;;;;2.65;2.38;;;-13.90;99.90;;;;;;5101054;28;20012;-61
2021/11/27 09:31:14;;;;;;;3.88;2.47;;;-13.50;99.90;;;;;;5101047;28;20057;-61
2021/11/27 09:33:39;;;;;;;6.65;2.80;;;-13.60;99.90;;;;;;5103899;28;20609;-61
2021/11/27 09:36:07;;;;;;;4.55;2.80;;;-13.60;99.90;;;;;;5104061;28;20032;-61
2021/11/27 09:38:35;;;;;;;4.57;2.90;;;-13.60;99.90;;;;;;5112069;28;20088;-62
2021/11/27 09:41:18;;;;;;;6.85;3.08;;;-13.60;99.90;;;;;;5093230;28;20043;-62
2021/11/27 09:43:48;;;;;;;3.72;2.70;;;-13.10;99.90;;;;;;5101256;28;20518;-62
2021/11/27 09:46:15;;;;;;;2.83;2.60;;;-13.10;99.90;;;;;;5098110;28;20081;-62
2021/11/27 09:48:46;;;;;;;3.30;2.63;;;-13.30;99.90;;;;;;5110148;28;20544;-62
2021/11/27 09:51:12;;;;;;;6.55;2.75;;;-13.40;99.90;;;;;;5100666;28;20020;-63
2021/11/27 09:53:39;;;;;;;8.43;3.60;;;-13.50;99.90;;;;;;5101498;28;20020;-62
2021/11/27 09:56:06;;;;;;;5.97;2.78;;;-13.50;99.90;;;;;;5103785;28;20027;-64
2021/11/27 09:58:32;;;;;;;3.38;2.22;;;-13.50;99.90;;;;;;5103810;28;20101;-62
2021/11/27 10:01:00;;;;;;;2.80;2.40;;;-13.50;99.90;;;;;;5105043;28;20027;-62
2021/11/27 10:03:28;;;;;;;2.85;2.45;;;-13.50;99.90;;;;;;5100507;28;20039;-63
2021/11/27 10:05:55;;;;;;;1.98;1.77;;;-13.40;99.90;;;;;;5102389;28;20392;-62
2021/11/27 10:08:20;;;;;;;1.90;1.80;;;-13.50;99.90;;;;;;5101478;28;20471;-62
2021/11/27 10:10:46;;;;;;;3.92;2.05;;;-13.60;99.90;;;;;;5106517;28;20107;-62
2021/11/27 10:13:17;;;;;;;3.15;1.95;;;-13.60;99.90;;;;;;5107048;28;20059;-62
2021/11/27 10:15:43;;;;;;;2.90;2.50;;;-13.60;99.90;;;;;;5112922;28;20106;-63
2021/11/27 10:18:17;;;;;;;2.85;2.55;;;-13.50;99.90;;;;;;5112757;28;20489;-62
2021/11/27 10:20:43;;;;;;;5.75;2.15;;;-13.50;99.90;;;;;;5112443;28;20031;-61
2021/11/27 10:23:10;;;;;;;2.70;1.95;;;-13.40;99.90;;;;;;5099360;28;20430;-63
2021/11/27 10:25:38;;;;;;;3.90;2.20;;;-13.40;99.90;;;;;;5092549;28;20020;-62
2021/11/27 10:28:17;;;;;;;2.45;2.20;;;-13.40;99.90;;;;;;5092138;28;20651;-62
2021/11/27 10:30:59;;;;;;;3.00;2.35;;;-13.30;99.90;;;;;;5094154;28;20081;-63
2021/11/27 10:33:26;;;;;;;4.72;2.30;;;-13.30;99.90;;;;;;5101745;28;20052;-64
2021/11/27 10:36:03;;;;;;;2.50;2.00;;;-13.30;99.90;;;;;;5105123;28;20051;-63
2021/11/27 10:38:46;;;;;;;2.88;2.28;;;-13.30;99.90;;;;;;5100561;28;20046;-62
2021/11/27 10:41:15;;;;;;;5.68;2.78;;;-13.20;99.90;;;;;;5111770;28;20027;-63
2021/11/27 10:44:04;;;;;;;4.68;2.42;;;-13.30;99.90;;;;;;5112607;28;20438;-63
2021/11/27 10:46:33;;;;;;;3.38;2.42;;;-13.20;99.90;;;;;;5108948;28;20020;-62
2021/11/27 10:48:59;;;;;;;2.45;2.22;;;-13.20;99.90;;;;;;5092268;28;20027;-62
2021/11/27 10:51:25;;;;;;;2.65;2.03;;;-13.10;99.90;;;;;;5092071;28;20081;-63
2021/11/27 10:54:08;;;;;;;2.28;1.95;;;-13.10;99.90;;;;;;5091921;28;20024;-63
2021/11/27 10:56:43;;;;;;;2.65;2.42;;;-13.10;99.90;;;;;;5090577;28;20040;-63
2021/11/27 10:59:10;;;;;;;2.47;2.28;;;-13.10;99.90;;;;;;5094885;28;20069;-63
2021/11/27 11:02:11;;;;;;;2.83;2.22;;;-13.00;99.90;;;;;;5112457;28;20430;-62
2021/11/27 11:04:37;;;;;;;6.97;2.30;;;-13.00;99.90;;;;;;5096230;28;20512;-63
2021/11/27 11:07:32;;;;;;;3.60;2.55;;;-12.90;99.90;;;;;;5092188;28;20028;-63
2021/11/27 11:10:06;;;;;;;2.72;2.00;;;-12.90;99.90;;;;;;5099241;28;20679;-63
2021/11/27 11:12:44;;;;;;;4.55;2.33;;;-12.90;99.90;;;;;;5112123;28;20506;-63
2021/11/27 11:15:14;;;;;;;3.47;2.63;;;-12.90;99.90;;;;;;5106508;28;20032;-62
2021/11/27 11:17:41;;;;;;;;;;;-12.80;99.90;;;;;;5105047;28;20180;-63
2021/11/27 11:20:23;;;;;;;6.00;3.28;;;-12.80;99.90;;;;;;5101104;28;20407;-63
2021/11/27 11:22:58;;;;;;;3.53;3.03;;;-12.70;99.90;;;;;;5097730;28;20059;-64
2021/11/27 11:25:25;;;;;;;2.65;2.22;;;-12.70;99.90;;;;;;5110717;28;20027;-63
2021/11/27 11:27:50;;;;;;;3.80;2.45;;;-11.90;99.90;;;;;;5112138;28;20027;-64
2021/11/27 11:30:21;;;;;;;6.53;2.35;;;-11.90;99.90;;;;;;5111937;28;20050;-63
2021/11/27 11:32:47;;;;;;;2.60;2.05;;;-12.10;99.90;;;;;;5112312;28;20463;-63
2021/11/27 11:35:14;;;;;;;1.85;1.75;;;-12.20;99.90;;;;;;5112160;28;20027;-63
2021/11/27 11:37:40;;;;;;;4.22;2.42;;;-12.30;99.90;;;;;;5112202;28;20027;-63
2021/11/27 11:40:06;;;;;;;2.25;2.08;;;-12.30;99.90;;;;;;5122505;28;20034;-63
2021/11/27 11:42:33;;;;;;;1.80;1.70;;;-12.30;99.90;;;;;;5131016;28;20390;-64
2021/11/27 11:44:59;;;;;;;2.67;2.08;;;-12.30;99.90;;;;;;5125872;28;20031;-63
2021/11/27 11:47:26;;;;;;;7.10;3.55;;;-12.40;99.90;;;;;;5118248;27;20179;-63
2021/11/27 11:49:59;;;;;;;6.93;3.60;;;-12.40;99.90;;;;;;5136229;27;20422;-64
2021/11/27 11:52:35;;;;;;;2.85;2.60;;;-12.30;99.90;;;;;;5136005;27;20054;-62
2021/11/27 11:55:11;;;;;;;2.60;2.40;;;-12.30;99.90;;;;;;5135792;27;20110;-63
2021/11/27 11:57:45;;;;;;;3.40;2.40;;;-12.30;99.90;;;;;;5135787;27;20399;-63
2021/11/27 12:00:38;;;;;;;2.03;1.85;;;-12.40;99.90;;;;;;5135915;27;20097;-63
2021/11/27 12:03:11;;;;;;;2.67;1.73;;;-12.40;99.90;;;;;;5115324;28;20510;-63
2021/11/27 12:05:55;;;;;;;3.85;2.20;;;-12.00;99.90;;;;;;5115500;28;20031;-63
2021/11/27 12:08:49;;;;;;;2.17;1.95;;;-12.10;99.90;;;;;;5115092;28;20122;-64
2021/11/27 12:11:52;;;;;;;2.65;2.10;;;-12.20;99.90;;;;;;5115322;28;20019;-63
2021/11/27 12:14:21;;;;;;;5.20;2.28;;;-12.40;99.90;;;;;;5071967;28;20062;-63
2021/11/27 12:17:19;;;;;;;4.97;2.15;;;-12.50;99.90;;;;;;5118545;27;20024;-64
2021/11/27 12:19:55;;;;;;;4.30;2.40;;;-12.40;99.90;;;;;;5123702;27;20042;-63
2021/11/27 12:22:23;;;;;;;4.10;2.38;;;-12.40;99.90;;;;;;5135457;27;20092;-63
2021/11/27 12:25:05;;;;;;;3.58;2.72;;;-12.50;99.90;;;;;;5135676;27;20050;-63
2021/11/27 12:27:32;;;;;;;4.53;2.50;;;-12.40;99.90;;;;;;5135596;27;20035;-63
2021/11/27 12:30:10;;;;;;;4.40;2.53;;;-12.40;99.90;;;;;;5135520;27;20030;-63
2021/11/27 12:32:40;;;;;;;6.75;2.70;;;-12.40;99.90;;;;;;5117648;27;20382;-63
2021/11/27 12:35:28;;;;;;;4.65;2.22;;;-12.30;99.90;;;;;;5114739;28;20027;-63
2021/11/27 12:38:30;;;;;;;6.57;2.67;;;-12.30;99.90;;;;;;5114617;27;20027;-63
2021/11/27 12:40:58;;;;;;;5.20;2.72;;;-12.30;99.90;;;;;;5110956;28;20368;-63
2021/11/27 12:43:24;;;;;;;5.68;2.92;;;-12.20;99.90;;;;;;5114580;28;20109;-63
2021/11/27 12:45:53;;;;;;;3.30;2.72;;;-12.10;99.90;;;;;;5114509;28;20522;-63
2021/11/27 12:48:31;;;;;;;4.28;2.40;;;-12.10;99.90;;;;;;5114749;27;20032;-63
2021/11/27 12:51:16;;;;;;;3.45;2.35;;;-12.00;99.90;;;;;;5114851;28;20023;-63
2021/11/27 12:54:02;;;;;;;2.53;2.13;;;-12.00;99.90;;;;;;5114411;28;20027;-63
2021/11/27 12:56:42;;;;;;;2.47;2.28;;;-12.00;99.90;;;;;;5113620;28;20019;-63
2021/11/27 12:59:20;;;;;;;3.47;2.60;;;-12.00;99.90;;;;;;5114396;28;20035;-63
2021/11/27 13:01:47;;;;;;;6.07;5.45;;;-12.00;99.90;;;;;;5114174;28;20403;-63
2021/11/27 13:04:18;;;;;;;5.18;4.10;;;-12.00;99.90;;;;;;5114196;28;20609;-63
2021/11/27 13:06:44;;;;;;;3.15;2.60;;;-12.00;99.90;;;;;;5114318;28;20032;-63
2021/11/27 13:09:14;;;;;;;2.08;1.90;;;-11.90;99.90;;;;;;5114484;28;20101;-63
2021/11/27 13:11:50;;;;;;;4.15;2.20;;;-11.90;99.90;;;;;;5114212;28;20118;-63
2021/11/27 13:14:32;;;;;;;3.35;2.50;;;-12.00;99.90;;;;;;5113989;28;20024;-63